Vail, Washington
Current Conditions -  °F | °C
As of 9:54 PM on Wednesday 22 Oct 2014 (Local Time) from KOLM Reporting Station
Overcast Overcast  
Wind Chill: 56°   Ceiling: 3800
Heat Index: 56°   Visibility: 10mi
Dew Point: 52°   Wind: 14mph
Humidity: 87%   Direction: 190°S
Pressure: 29.66"   Gusts: NA
Location:  46.8214°N, 122.662°W
Report Text: KOLM 230454Z AUTO 19012KT 10SM BKN038 BKN048 OVC060 13/11 A2966 RMK AO2 RAB04E14 SLP042 P0000 T01330111 $
Loading
Personal Weather Stations






























Interactive Weather Map
Tropical Storm Tracking
New forecast layout! Learn more

10-Day Weather Forecast

Advertisements
Track Severe Weather on mobile